createdAt,value
2023-03-11T00:00:47.198Z,1.70
2023-03-11T00:03:17.067Z,1.70
2023-03-11T00:05:45.975Z,1.70
2023-03-11T00:08:17.049Z,1.70
2023-03-11T00:10:46.464Z,1.70
2023-03-11T00:13:16.765Z,1.70
2023-03-11T00:15:47.363Z,1.70
2023-03-11T00:18:15.087Z,1.70
2023-03-11T00:20:44.986Z,1.70
2023-03-11T00:23:14.208Z,1.70
2023-03-11T00:25:45.270Z,1.70
2023-03-11T00:28:14.305Z,1.70
2023-03-11T00:30:43.112Z,1.70
2023-03-11T00:33:12.803Z,1.70
2023-03-11T00:35:40.242Z,1.70
2023-03-11T00:38:09.625Z,1.70
2023-03-11T00:40:41.742Z,1.70
2023-03-11T00:43:09.026Z,1.70
2023-03-11T00:45:36.444Z,1.70
2023-03-11T00:48:04.252Z,1.70
2023-03-11T00:50:34.609Z,1.70
2023-03-11T00:53:02.544Z,1.80
2023-03-11T00:55:32.558Z,1.70
2023-03-11T00:58:02.373Z,1.70
2023-03-11T01:00:30.704Z,1.70
2023-03-11T01:02:58.550Z,1.70
2023-03-11T01:05:29.815Z,1.70
2023-03-11T01:07:57.084Z,1.70
2023-03-11T01:10:24.641Z,1.70
2023-03-11T01:12:52.219Z,1.70
2023-03-11T01:15:23.789Z,1.70
2023-03-11T01:17:51.019Z,1.70
2023-03-11T01:20:18.781Z,1.70
2023-03-11T01:22:46.255Z,1.70
2023-03-11T01:25:15.347Z,1.70
2023-03-11T01:27:43.032Z,1.70
2023-03-11T01:30:13.917Z,1.70
2023-03-11T01:32:41.463Z,1.70
2023-03-11T01:35:10.432Z,1.70
2023-03-11T01:37:37.581Z,1.70
2023-03-11T01:40:06.016Z,1.70
2023-03-11T01:42:33.261Z,1.70
2023-03-11T01:45:00.685Z,1.70
2023-03-11T01:47:39.228Z,1.70
2023-03-11T01:50:11.314Z,1.70
2023-03-11T01:52:39.022Z,1.70
2023-03-11T01:55:07.417Z,1.70
2023-03-11T01:57:34.888Z,1.70
2023-03-11T02:00:07.639Z,1.70
2023-03-11T02:02:54.580Z,1.70
2023-03-11T02:05:23.449Z,1.70
2023-03-11T02:07:51.942Z,1.70
2023-03-11T02:10:19.657Z,1.60
2023-03-11T02:12:48.843Z,1.60
2023-03-11T02:15:17.384Z,1.60
2023-03-11T02:17:44.885Z,1.60
2023-03-11T02:20:34.179Z,1.60
2023-03-11T02:23:02.564Z,1.70
2023-03-11T02:25:51.669Z,1.60
2023-03-11T02:28:21.358Z,1.70
2023-03-11T02:30:49.860Z,1.70
2023-03-11T02:33:19.095Z,1.70
2023-03-11T02:35:46.424Z,1.70
2023-03-11T02:38:14.256Z,1.70
2023-03-11T02:40:52.211Z,1.70
2023-03-11T02:43:37.475Z,1.70
2023-03-11T02:46:07.478Z,1.60
2023-03-11T02:48:35.798Z,1.60
2023-03-11T02:51:03.844Z,1.60
2023-03-11T02:53:35.956Z,1.60
2023-03-11T02:56:03.271Z,1.50
2023-03-11T02:58:30.546Z,1.50
2023-03-11T03:00:57.943Z,1.50
2023-03-11T03:03:25.707Z,1.50
2023-03-11T03:05:52.776Z,1.50
2023-03-11T03:08:19.872Z,1.50
2023-03-11T03:10:47.759Z,1.40
2023-03-11T03:13:15.165Z,1.40
2023-03-11T03:15:42.374Z,1.40
2023-03-11T03:18:09.708Z,1.40
2023-03-11T03:20:36.994Z,1.50
2023-03-11T03:23:04.343Z,1.40
2023-03-11T03:25:31.757Z,1.50
2023-03-11T03:27:58.968Z,1.50
2023-03-11T03:30:26.174Z,1.50
2023-03-11T03:32:53.337Z,1.50
2023-03-11T03:35:20.669Z,1.50
2023-03-11T03:37:48.089Z,1.60
2023-03-11T03:40:15.636Z,1.50
2023-03-11T03:42:42.805Z,1.50
2023-03-11T03:45:10.925Z,1.50
2023-03-11T03:47:38.591Z,1.50
2023-03-11T03:50:08.300Z,1.50
2023-03-11T03:52:36.801Z,1.50
2023-03-11T03:55:05.865Z,1.60
2023-03-11T03:57:33.393Z,1.50
2023-03-11T04:00:00.810Z,1.50
2023-03-11T04:02:28.515Z,1.50
2023-03-11T04:04:56.044Z,1.50
2023-03-11T04:07:23.584Z,1.50
2023-03-11T04:09:50.782Z,1.50
2023-03-11T04:12:18.455Z,1.50
2023-03-11T04:14:45.951Z,1.50
2023-03-11T04:17:14.549Z,1.50
2023-03-11T04:19:41.819Z,1.50
2023-03-11T04:22:09.336Z,1.50
2023-03-11T04:24:36.584Z,1.50
2023-03-11T04:27:03.895Z,1.50
2023-03-11T04:29:31.083Z,1.50
2023-03-11T04:31:58.264Z,1.40
2023-03-11T04:34:25.622Z,1.50
2023-03-11T04:36:55.159Z,1.40
2023-03-11T04:39:22.673Z,1.40
2023-03-11T04:41:50.048Z,1.40
2023-03-11T04:44:17.495Z,1.40
2023-03-11T04:46:44.715Z,1.50
2023-03-11T04:49:12.189Z,1.40
2023-03-11T04:51:39.611Z,1.50
2023-03-11T04:54:06.881Z,1.40
2023-03-11T04:56:34.476Z,1.50
2023-03-11T04:59:02.199Z,1.40
2023-03-11T05:01:29.401Z,1.50
2023-03-11T05:03:56.642Z,1.40
2023-03-11T05:06:23.944Z,1.40
2023-03-11T05:08:51.302Z,1.50
2023-03-11T05:11:18.635Z,1.40
2023-03-11T05:13:45.919Z,1.40
2023-03-11T05:16:13.215Z,1.40
2023-03-11T05:18:40.562Z,1.40
2023-03-11T05:21:07.915Z,1.40
2023-03-11T05:23:36.882Z,1.40
2023-03-11T05:26:04.146Z,1.40
2023-03-11T05:28:31.337Z,1.40
2023-03-11T05:30:58.742Z,1.40
2023-03-11T05:33:25.967Z,1.40
2023-03-11T05:35:53.424Z,1.40
2023-03-11T05:38:20.752Z,1.30
2023-03-11T05:40:48.507Z,1.30
2023-03-11T05:43:15.843Z,1.30
2023-03-11T05:45:43.166Z,1.30
2023-03-11T05:48:10.378Z,1.30
2023-03-11T05:50:38.456Z,1.30
2023-03-11T05:53:05.700Z,1.30
2023-03-11T05:55:32.779Z,1.30
2023-03-11T05:58:00.194Z,1.20
2023-03-11T06:00:29.772Z,1.20
2023-03-11T06:02:57.022Z,1.20
2023-03-11T06:05:24.499Z,1.20
2023-03-11T06:07:52.014Z,1.20
2023-03-11T06:10:19.296Z,1.20
2023-03-11T06:12:46.624Z,1.10
2023-03-11T06:15:13.859Z,1.10
2023-03-11T06:17:41.077Z,1.10
2023-03-11T06:20:10.215Z,1.10
2023-03-11T06:22:40.027Z,1.10
2023-03-11T06:25:08.235Z,1.10
2023-03-11T06:27:35.478Z,1.10
2023-03-11T06:30:02.758Z,1.10
2023-03-11T06:32:30.641Z,1.20
2023-03-11T06:34:57.871Z,1.20
2023-03-11T06:37:25.881Z,1.30
2023-03-11T06:39:53.994Z,1.30
2023-03-11T06:42:27.208Z,1.30
2023-03-11T06:44:54.539Z,1.40
2023-03-11T06:47:21.899Z,1.40
2023-03-11T06:49:51.205Z,1.40
2023-03-11T06:52:18.631Z,1.40
2023-03-11T06:54:46.373Z,1.40
2023-03-11T06:57:14.007Z,1.40
2023-03-11T06:59:41.103Z,1.40
2023-03-11T07:02:12.865Z,1.50
2023-03-11T07:04:40.382Z,1.40
2023-03-11T07:07:07.764Z,1.50
2023-03-11T07:09:35.239Z,1.60
2023-03-11T07:12:02.716Z,1.60
2023-03-11T07:14:30.167Z,1.50
2023-03-11T07:16:57.566Z,1.50
2023-03-11T07:19:25.314Z,1.60
2023-03-11T07:21:52.740Z,1.60
2023-03-11T07:24:20.231Z,1.70
2023-03-11T07:26:47.746Z,1.80
2023-03-11T07:29:15.177Z,1.90
2023-03-11T07:31:42.665Z,2.00
2023-03-11T07:34:13.057Z,2.10
2023-03-11T07:36:42.753Z,2.20
2023-03-11T07:39:15.509Z,2.30
2023-03-11T07:41:43.384Z,2.40
2023-03-11T07:44:15.736Z,2.50
2023-03-11T07:46:43.788Z,2.50
2023-03-11T07:49:11.330Z,2.50
2023-03-11T07:51:44.169Z,2.50
2023-03-11T07:54:12.937Z,2.60
2023-03-11T07:56:41.601Z,2.70
2023-03-11T07:59:08.811Z,2.80
2023-03-11T08:01:41.436Z,2.80
2023-03-11T08:04:14.437Z,2.80
2023-03-11T08:06:43.267Z,2.90
2023-03-11T08:09:10.971Z,2.90
2023-03-11T08:11:38.517Z,2.90
2023-03-11T08:14:06.181Z,2.90
2023-03-11T08:16:34.095Z,2.90
2023-03-11T08:19:01.538Z,2.90
2023-03-11T08:21:32.516Z,2.90
2023-03-11T08:24:02.663Z,2.90
2023-03-11T08:26:31.634Z,2.90
2023-03-11T08:28:59.909Z,2.90
2023-03-11T08:31:30.283Z,2.90
2023-03-11T08:34:01.398Z,2.80
2023-03-11T08:36:29.650Z,2.80
2023-03-11T08:38:57.114Z,2.90
2023-03-11T08:41:24.630Z,3.00
2023-03-11T08:43:52.601Z,3.10
2023-03-11T08:46:35.959Z,3.20
2023-03-11T08:49:04.548Z,3.40
2023-03-11T08:51:34.324Z,3.50
2023-03-11T08:54:02.860Z,3.60
2023-03-11T08:56:30.734Z,3.60
2023-03-11T08:58:58.181Z,3.80
2023-03-11T09:01:25.922Z,3.90
2023-03-11T09:03:53.598Z,4.10
2023-03-11T09:06:21.468Z,4.20
2023-03-11T09:08:49.188Z,4.20
2023-03-11T09:11:18.701Z,4.20
2023-03-11T09:13:45.928Z,4.20
2023-03-11T09:16:17.316Z,4.20
2023-03-11T09:18:46.437Z,4.20
2023-03-11T09:21:14.292Z,4.10
2023-03-11T09:23:44.460Z,4.00
2023-03-11T09:26:12.322Z,4.00
2023-03-11T09:28:42.505Z,3.90
2023-03-11T09:31:10.312Z,3.80
2023-03-11T09:33:42.853Z,3.70
2023-03-11T09:36:15.580Z,3.70
2023-03-11T09:38:44.029Z,3.60
2023-03-11T09:41:32.502Z,3.50
2023-03-11T09:44:29.059Z,3.50
2023-03-11T09:47:34.978Z,3.40
2023-03-11T09:50:16.886Z,3.30
2023-03-11T09:52:56.390Z,3.30
2023-03-11T09:55:50.531Z,3.20
2023-03-11T09:59:02.442Z,3.20
2023-03-11T10:01:36.393Z,3.20
2023-03-11T10:04:27.368Z,3.20
2023-03-11T10:06:57.167Z,3.10
2023-03-11T10:09:39.511Z,3.10
2023-03-11T10:12:41.379Z,3.10
2023-03-11T10:15:40.844Z,3.00
2023-03-11T10:18:48.037Z,3.00
2023-03-11T10:21:42.710Z,3.00
2023-03-11T10:24:48.962Z,3.00
2023-03-11T10:27:39.034Z,3.00
2023-03-11T10:30:45.275Z,3.10
2023-03-11T10:33:40.224Z,3.10
2023-03-11T10:36:14.644Z,3.10
2023-03-11T10:38:48.685Z,3.10
2023-03-11T10:41:16.088Z,3.10
2023-03-11T10:44:07.809Z,3.10
2023-03-11T10:46:35.112Z,3.10
2023-03-11T10:49:02.717Z,3.10
2023-03-11T10:51:37.328Z,3.10
2023-03-11T10:54:04.918Z,3.10
2023-03-11T10:56:41.743Z,3.10
2023-03-11T10:59:30.444Z,3.10
2023-03-11T11:02:00.726Z,3.20
2023-03-11T11:04:41.109Z,3.20
2023-03-11T11:07:28.145Z,3.20
2023-03-11T11:10:17.508Z,3.20
2023-03-11T11:13:04.284Z,3.30
2023-03-11T11:15:40.061Z,3.30
2023-03-11T11:18:18.585Z,3.30
2023-03-11T11:21:11.657Z,3.30
2023-03-11T11:23:52.600Z,3.40
2023-03-11T11:26:24.545Z,3.40
2023-03-11T11:29:17.259Z,3.40
2023-03-11T11:31:46.916Z,3.40
2023-03-11T11:34:35.873Z,3.40
2023-03-11T11:37:06.175Z,3.50
2023-03-11T11:40:11.271Z,3.50
2023-03-11T11:42:41.869Z,3.50
2023-03-11T11:45:26.751Z,3.60
2023-03-11T11:48:00.664Z,3.60
2023-03-11T11:50:35.890Z,3.60
2023-03-11T11:53:21.595Z,3.60
2023-03-11T11:55:52.839Z,3.70
2023-03-11T11:58:22.024Z,3.70
2023-03-11T12:01:10.898Z,3.70
2023-03-11T12:04:12.454Z,3.70
2023-03-11T12:06:50.965Z,3.80
2023-03-11T12:09:24.279Z,3.80
2023-03-11T12:12:15.129Z,3.80
2023-03-11T12:15:11.597Z,3.90
2023-03-11T12:17:43.580Z,3.90
2023-03-11T12:20:18.533Z,3.90
2023-03-11T12:23:11.924Z,3.90
2023-03-11T12:26:14.804Z,4.00
2023-03-11T12:28:57.257Z,4.00
2023-03-11T12:31:27.686Z,4.10
2023-03-11T12:34:04.677Z,4.10
2023-03-11T12:36:37.964Z,4.10
2023-03-11T12:39:08.052Z,4.20
2023-03-11T12:41:43.079Z,4.20
2023-03-11T12:44:30.986Z,4.20
2023-03-11T12:47:02.669Z,4.20
2023-03-11T12:49:35.804Z,4.30
2023-03-11T12:52:12.136Z,4.30
2023-03-11T12:54:43.394Z,4.30
2023-03-11T12:57:17.163Z,4.30
2023-03-11T13:00:23.341Z,4.40
2023-03-11T13:03:13.114Z,4.40
2023-03-11T13:06:10.653Z,4.40
2023-03-11T13:08:54.974Z,4.50
2023-03-11T13:11:54.762Z,4.50
2023-03-11T13:14:35.767Z,4.60
2023-03-11T13:17:26.058Z,4.60
2023-03-11T13:19:57.888Z,4.60
2023-03-11T13:22:42.640Z,4.70
2023-03-11T13:25:39.731Z,4.80
2023-03-11T13:28:34.291Z,4.90
2023-03-11T13:31:20.342Z,5.10
2023-03-11T13:34:16.846Z,5.20
2023-03-11T13:37:11.737Z,5.30
2023-03-11T13:40:14.415Z,5.50
2023-03-11T13:42:51.068Z,5.70
2023-03-11T13:45:38.554Z,6.00
2023-03-11T13:48:16.797Z,6.30
2023-03-11T13:50:49.667Z,6.60
2023-03-11T13:53:44.084Z,6.80
2023-03-11T13:56:47.004Z,6.80
2023-03-11T13:59:22.679Z,6.80
2023-03-11T14:01:57.750Z,6.80
2023-03-11T14:04:31.644Z,6.80
2023-03-11T14:06:59.890Z,6.90
2023-03-11T14:09:28.974Z,7.00
2023-03-11T14:12:05.155Z,7.20
2023-03-11T14:14:56.721Z,7.40
2023-03-11T14:17:24.063Z,7.50
2023-03-11T14:20:13.070Z,7.60
2023-03-11T14:22:40.647Z,7.70
2023-03-11T14:25:18.390Z,7.80
2023-03-11T14:28:21.675Z,7.90
2023-03-11T14:31:00.371Z,8.10
2023-03-11T14:33:29.581Z,8.30
2023-03-11T14:36:06.572Z,8.30
2023-03-11T14:38:34.007Z,8.20
2023-03-11T14:41:07.275Z,8.10
2023-03-11T14:43:40.004Z,7.90
2023-03-11T14:46:09.111Z,7.90
2023-03-11T14:48:42.295Z,7.90
2023-03-11T14:51:18.082Z,7.80
2023-03-11T14:53:58.433Z,7.60
2023-03-11T14:56:28.090Z,7.30
2023-03-11T14:59:08.420Z,7.10
2023-03-11T15:01:43.540Z,7.00
2023-03-11T15:04:22.997Z,6.80
2023-03-11T15:06:50.920Z,6.60
2023-03-11T15:09:24.083Z,6.50
2023-03-11T15:11:58.474Z,6.30
2023-03-11T15:14:34.442Z,6.20
2023-03-11T15:17:42.949Z,6.10
2023-03-11T15:20:36.430Z,6.00
2023-03-11T15:23:06.579Z,5.80
2023-03-11T15:25:38.998Z,5.80
2023-03-11T15:28:25.528Z,5.70
2023-03-11T15:31:21.701Z,5.60
2023-03-11T15:33:49.656Z,5.40
2023-03-11T15:36:40.953Z,5.40
2023-03-11T15:39:31.497Z,5.20
2023-03-11T15:42:07.691Z,5.20
2023-03-11T15:44:41.788Z,5.10
2023-03-11T15:47:17.821Z,5.10
2023-03-11T15:49:45.892Z,5.00
2023-03-11T15:52:13.604Z,4.90
2023-03-11T15:54:41.292Z,4.90
2023-03-11T15:57:36.089Z,4.80
2023-03-11T16:00:05.489Z,4.80
2023-03-11T16:02:33.149Z,4.70
2023-03-11T16:05:00.386Z,4.70
2023-03-11T16:07:39.270Z,4.70
2023-03-11T16:10:09.155Z,4.60
2023-03-11T16:12:36.540Z,4.60
2023-03-11T16:15:04.561Z,4.50
2023-03-11T16:17:48.358Z,4.50
2023-03-11T16:20:16.829Z,4.50
2023-03-11T16:22:44.666Z,4.50
2023-03-11T16:25:25.394Z,4.40
2023-03-11T16:27:55.177Z,4.40
2023-03-11T16:30:24.572Z,4.30
2023-03-11T16:32:52.094Z,4.30
2023-03-11T16:35:20.997Z,4.30
2023-03-11T16:37:49.079Z,4.30
2023-03-11T16:40:22.669Z,4.20
2023-03-11T16:42:50.394Z,4.20
2023-03-11T16:45:18.649Z,4.10
2023-03-11T16:47:45.916Z,4.10
2023-03-11T16:50:13.241Z,4.10
2023-03-11T16:52:40.666Z,4.00
2023-03-11T16:55:08.579Z,4.00
2023-03-11T16:57:38.021Z,4.00
2023-03-11T17:00:12.079Z,3.90
2023-03-11T17:02:39.956Z,3.90
2023-03-11T17:05:09.095Z,3.90
2023-03-11T17:07:39.424Z,3.90
2023-03-11T17:10:08.110Z,3.90
2023-03-11T17:12:36.432Z,3.90
2023-03-11T17:15:05.549Z,3.90
2023-03-11T17:17:32.857Z,3.90
2023-03-11T17:20:00.198Z,3.90
2023-03-11T17:22:27.595Z,3.80
2023-03-11T17:24:54.937Z,3.80
2023-03-11T17:27:22.387Z,3.80
2023-03-11T17:29:49.494Z,3.70
2023-03-11T17:32:17.775Z,3.70
2023-03-11T17:34:45.512Z,3.70
2023-03-11T17:37:12.818Z,3.60
2023-03-11T17:39:40.484Z,3.60
2023-03-11T17:42:07.956Z,3.50
2023-03-11T17:44:50.093Z,3.50
2023-03-11T17:47:20.637Z,3.40
2023-03-11T17:49:49.252Z,3.40
2023-03-11T17:52:16.439Z,3.30
2023-03-11T17:54:44.314Z,3.30
2023-03-11T17:57:16.328Z,3.30
2023-03-11T17:59:43.557Z,3.20
2023-03-11T18:02:14.735Z,3.20
2023-03-11T18:04:46.423Z,3.20
2023-03-11T18:07:13.864Z,3.10
2023-03-11T18:09:41.204Z,3.10
2023-03-11T18:12:08.476Z,3.10
2023-03-11T18:14:37.300Z,3.10
2023-03-11T18:17:18.308Z,3.10
2023-03-11T18:19:47.011Z,3.10
2023-03-11T18:22:16.450Z,3.10
2023-03-11T18:24:43.874Z,3.00
2023-03-11T18:27:12.329Z,3.00
2023-03-11T18:29:39.542Z,3.00
2023-03-11T18:32:06.880Z,3.00
2023-03-11T18:34:34.114Z,2.90
2023-03-11T18:37:01.846Z,2.90
2023-03-11T18:39:29.094Z,2.90
2023-03-11T18:41:56.399Z,2.90
2023-03-11T18:44:24.156Z,2.80
2023-03-11T18:46:51.338Z,2.80
2023-03-11T18:49:18.789Z,2.80
2023-03-11T18:51:47.286Z,2.80
2023-03-11T18:54:14.642Z,2.70
2023-03-11T18:56:42.274Z,2.70
2023-03-11T18:59:12.683Z,2.70
2023-03-11T19:01:39.992Z,2.70
2023-03-11T19:04:08.713Z,2.70
2023-03-11T19:06:37.196Z,2.70
2023-03-11T19:09:06.293Z,2.70
2023-03-11T19:11:33.899Z,2.70
2023-03-11T19:14:04.833Z,2.70
2023-03-11T19:16:32.526Z,2.70
2023-03-11T19:19:04.303Z,2.60
2023-03-11T19:21:31.776Z,2.60
2023-03-11T19:24:00.321Z,2.60
2023-03-11T19:26:43.105Z,2.60
2023-03-11T19:29:11.780Z,2.60
2023-03-11T19:31:39.624Z,2.60
2023-03-11T19:34:08.741Z,2.50
2023-03-11T19:36:36.252Z,2.60
2023-03-11T19:39:03.768Z,2.60
2023-03-11T19:41:31.232Z,2.60
2023-03-11T19:43:58.775Z,2.50
2023-03-11T19:46:28.182Z,2.50
2023-03-11T19:48:57.558Z,2.50
2023-03-11T19:51:28.454Z,2.50
2023-03-11T19:53:57.787Z,2.50
2023-03-11T19:56:27.859Z,2.50
2023-03-11T19:58:56.732Z,2.50
2023-03-11T20:01:25.830Z,2.50
2023-03-11T20:03:53.140Z,2.50
2023-03-11T20:06:23.178Z,2.50
2023-03-11T20:08:51.407Z,2.50
2023-03-11T20:11:18.743Z,2.50
2023-03-11T20:13:46.240Z,2.40
2023-03-11T20:16:18.506Z,2.40
2023-03-11T20:18:50.605Z,2.40
2023-03-11T20:21:18.363Z,2.40
2023-03-11T20:23:48.376Z,2.40
2023-03-11T20:26:19.026Z,2.40
2023-03-11T20:28:46.633Z,2.40
2023-03-11T20:31:21.323Z,2.40
2023-03-11T20:33:50.744Z,2.40
2023-03-11T20:36:24.257Z,2.40
2023-03-11T20:38:54.130Z,2.40
2023-03-11T20:41:23.552Z,2.40
2023-03-11T20:43:57.765Z,2.40
2023-03-11T20:46:25.773Z,2.40
2023-03-11T20:48:53.392Z,2.40
2023-03-11T20:51:23.375Z,2.40
2023-03-11T20:53:50.997Z,2.40
2023-03-11T20:56:23.646Z,2.40
2023-03-11T20:58:52.507Z,2.40
2023-03-11T21:01:29.232Z,2.40
2023-03-11T21:03:59.165Z,2.40
2023-03-11T21:06:29.913Z,2.40
2023-03-11T21:08:59.559Z,2.40
2023-03-11T21:11:27.485Z,2.40
2023-03-11T21:13:56.427Z,2.40
2023-03-11T21:16:24.767Z,2.40
2023-03-11T21:18:52.262Z,2.40
2023-03-11T21:21:20.134Z,2.40
2023-03-11T21:23:48.940Z,2.40
2023-03-11T21:26:17.895Z,2.40
2023-03-11T21:28:47.186Z,2.40
2023-03-11T21:31:21.109Z,2.40
2023-03-11T21:33:49.250Z,2.50
2023-03-11T21:36:17.653Z,2.50
2023-03-11T21:38:46.851Z,2.50
2023-03-11T21:41:19.690Z,2.50
2023-03-11T21:43:47.559Z,2.50
2023-03-11T21:46:17.663Z,2.50
2023-03-11T21:48:45.263Z,2.50
2023-03-11T21:51:13.321Z,2.50
2023-03-11T21:53:40.904Z,2.60
2023-03-11T21:56:08.924Z,2.50
2023-03-11T21:58:37.098Z,2.50
2023-03-11T22:01:04.885Z,2.50
2023-03-11T22:03:36.382Z,2.50
2023-03-11T22:06:10.608Z,2.50
2023-03-11T22:08:38.635Z,2.50
2023-03-11T22:11:14.501Z,2.50
2023-03-11T22:13:42.085Z,2.60
2023-03-11T22:16:09.857Z,2.60
2023-03-11T22:18:37.847Z,2.60
2023-03-11T22:21:05.846Z,2.60
2023-03-11T22:23:34.048Z,2.60
2023-03-11T22:26:02.446Z,2.60
2023-03-11T22:28:30.050Z,2.60
2023-03-11T22:30:57.893Z,2.60
2023-03-11T22:33:25.840Z,2.70
2023-03-11T22:36:00.517Z,2.70
2023-03-11T22:38:27.891Z,2.60
2023-03-11T22:40:56.411Z,2.70
2023-03-11T22:43:24.010Z,2.70
2023-03-11T22:45:51.134Z,2.70
2023-03-11T22:48:18.680Z,2.60
2023-03-11T22:50:47.465Z,2.60
2023-03-11T22:53:15.854Z,2.60
2023-03-11T22:55:46.466Z,2.60
2023-03-11T22:58:13.821Z,2.60
2023-03-11T23:00:43.510Z,2.50
2023-03-11T23:03:12.146Z,2.60
2023-03-11T23:05:42.496Z,2.50
2023-03-11T23:08:12.707Z,2.50
2023-03-11T23:10:41.883Z,2.50
2023-03-11T23:13:10.981Z,2.50
2023-03-11T23:15:42.266Z,2.50
2023-03-11T23:18:10.250Z,2.50
2023-03-11T23:20:39.397Z,2.50
2023-03-11T23:23:06.697Z,2.50
2023-03-11T23:25:35.801Z,2.50
2023-03-11T23:28:04.892Z,2.40
2023-03-11T23:30:32.905Z,2.40
2023-03-11T23:33:03.096Z,2.40
2023-03-11T23:35:31.635Z,2.40
2023-03-11T23:38:01.952Z,2.40
2023-03-11T23:40:29.166Z,2.40
2023-03-11T23:42:58.148Z,2.40
2023-03-11T23:48:10.651Z,2.50
2023-03-11T23:50:38.899Z,2.40
2023-03-11T23:53:07.051Z,2.50
2023-03-11T23:55:40.206Z,2.40
2023-03-11T23:58:09.676Z,2.40
